Time;durP1;ratioP1;P1;durP2;ratioP2;P2;SDS_P1;SDS_P2;PMS_P1;PMS_P2;Temp;Humidity;BMP_temperature;BMP_pressure;BME280_temperature;BME280_humidity;BME280_pressure;Samples;Min_cycle;Max_cycle;Signal;HPM_P1;HPM_P2
2023/05/23 00:02:20;;;;;;;16.50;11.18;;;;;;;14.23;86.68;150863.44;5041264;28;20127;-68
2023/05/23 00:04:46;;;;;;;17.55;12.15;;;;;;;14.16;86.34;150845.44;5051185;28;20040;-69
2023/05/23 00:07:11;;;;;;;13.60;11.90;;;;;;;14.11;85.83;150833.88;5045487;28;20049;-68
2023/05/23 00:09:37;;;;;;;17.25;12.48;;;;;;;14.07;86.43;150822.31;5027176;28;20029;-68
2023/05/23 00:12:03;;;;;;;15.32;11.80;;;;;;;14.09;86.69;150827.44;5042936;28;20065;-68
2023/05/23 00:14:32;;;;;;;16.08;12.38;;;;;;;14.07;86.04;150823.59;5042058;28;20029;-68
2023/05/23 00:16:59;;;;;;;13.80;11.93;;;;;;;14.07;86.29;150823.59;5028108;28;20106;-68
2023/05/23 00:19:24;;;;;;;15.90;12.20;;;;;;;14.01;86.84;150806.84;5023022;28;20030;-70
2023/05/23 00:21:52;;;;;;;16.42;12.30;;;;;;;13.94;86.81;150790.19;5028796;28;20056;-70
2023/05/23 00:24:19;;;;;;;16.75;12.73;;;;;;;13.99;86.47;150803.00;5041705;28;20041;-70
2023/05/23 00:26:45;;;;;;;14.90;12.18;;;;;;;13.97;87.09;150799.16;4989214;28;20250;-70
2023/05/23 00:29:17;;;;;;;16.65;12.57;;;;;;;13.98;87.66;150800.47;5018500;28;20040;-70
2023/05/23 00:31:46;;;;;;;;;;;;;;;13.75;86.71;150742.56;5023465;28;20319;-70
2023/05/23 00:34:13;;;;;;;20.88;13.15;;;;;;;13.93;86.23;150788.84;5031438;28;20342;-70
2023/05/23 00:36:40;;;;;;;15.68;12.38;;;;;;;13.89;86.70;150777.28;5038816;28;20034;-70
2023/05/23 00:39:07;;;;;;;19.42;12.50;;;;;;;13.90;86.37;150779.88;5023066;28;20033;-70
2023/05/23 00:41:33;;;;;;;15.18;12.30;;;;;;;13.85;86.58;150768.28;5022610;28;20025;-71
2023/05/23 00:43:58;;;;;;;18.90;13.18;;;;;;;13.86;86.22;150769.59;5005277;28;20044;-70
2023/05/23 00:46:26;;;;;;;12.80;11.50;;;;;;;13.84;86.50;150764.41;5040810;28;20241;-71
2023/05/23 00:48:53;;;;;;;19.92;13.68;;;;;;;13.83;86.91;150763.16;5056824;28;20037;-70
2023/05/23 00:51:19;;;;;;;19.75;13.48;;;;;;;13.83;86.54;150763.16;5041619;28;20025;-70
2023/05/23 00:53:46;;;;;;;18.20;13.38;;;;;;;13.78;86.30;150751.59;5061065;28;20035;-70
2023/05/23 00:56:12;;;;;;;16.70;13.15;;;;;;;13.74;86.84;150741.31;5045996;28;20306;-70
2023/05/23 00:58:39;;;;;;;15.75;12.50;;;;;;;13.74;86.55;150740.03;5042206;28;20048;-70
2023/05/23 01:01:05;;;;;;;15.73;12.85;;;;;;;13.71;87.07;150733.59;5035237;28;20026;-70
2023/05/23 01:03:31;;;;;;;15.88;12.23;;;;;;;13.74;86.59;150740.03;5022620;28;20278;-69
2023/05/23 01:05:56;;;;;;;20.52;15.15;;;;;;;13.61;86.40;150709.16;5022769;28;20105;-69
2023/05/23 01:08:22;;;;;;;16.02;13.85;;;;;;;13.59;86.38;150704.00;5040598;28;20148;-70
2023/05/23 01:10:48;;;;;;;14.63;13.02;;;;;;;13.64;86.28;150716.88;5029423;28;20113;-69
2023/05/23 01:13:37;;;;;;;18.75;14.30;;;;;;;13.62;87.17;150711.75;5031286;28;20198;-69
2023/05/23 01:16:34;;;;;;;16.45;13.70;;;;;;;13.63;87.72;150713.03;5013120;28;20085;-69
2023/05/23 01:19:28;;;;;;;14.85;13.32;;;;;;;13.66;86.66;150720.72;5015164;28;20206;-69
2023/05/23 01:21:58;;;;;;;15.63;13.15;;;;;;;13.66;87.23;150719.47;5035560;28;20137;-69
2023/05/23 01:24:51;;;;;;;17.27;14.57;;;;;;;13.66;86.51;150720.72;5024497;28;20030;-67
2023/05/23 01:27:16;;;;;;;20.20;14.77;;;;;;;13.65;86.47;150718.16;5026334;28;20054;-70
2023/05/23 01:29:47;;;;;;;19.63;15.23;;;;;;;13.60;86.62;150706.59;5043935;28;20037;-69
2023/05/23 01:32:15;;;;;;;23.30;15.95;;;;;;;13.62;86.18;150711.75;5031923;28;20079;-70
2023/05/23 01:34:41;;;;;;;19.50;14.98;;;;;;;13.61;86.75;150709.16;5032312;28;20101;-70
2023/05/23 01:37:09;;;;;;;20.02;15.45;;;;;;;13.63;86.39;150714.28;5031152;28;20190;-70
2023/05/23 01:39:35;;;;;;;21.80;14.63;;;;;;;13.63;87.62;150714.28;5012704;28;20025;-71
2023/05/23 01:42:01;;;;;;;28.63;15.35;;;;;;;13.64;86.64;150715.63;5045878;28;20049;-71
2023/05/23 01:44:28;;;;;;;19.83;15.10;;;;;;;13.66;86.27;150719.47;5029626;28;20029;-71
2023/05/23 01:46:53;;;;;;;17.20;13.30;;;;;;;13.71;86.37;150732.28;5036889;28;20088;-71
2023/05/23 01:49:21;;;;;;;18.02;14.43;;;;;;;13.65;86.43;150718.16;5039238;28;20322;-71
2023/05/23 01:51:48;;;;;;;19.05;14.52;;;;;;;13.63;86.66;150714.28;5025538;28;20026;-71
2023/05/23 01:54:15;;;;;;;21.30;14.43;;;;;;;13.64;86.24;150715.63;5025746;28;20041;-71
2023/05/23 01:56:42;;;;;;;19.77;14.68;;;;;;;13.62;86.21;150710.44;5043306;28;20212;-70
2023/05/23 01:59:08;;;;;;;18.25;14.48;;;;;;;13.56;87.08;150696.31;5032202;28;20045;-71
2023/05/23 02:01:33;;;;;;;20.92;13.85;;;;;;;13.60;86.91;150705.31;5025513;28;20029;-69
2023/05/23 02:03:59;;;;;;;19.38;13.70;;;;;;;13.68;86.20;150725.91;5029231;28;20044;-69
2023/05/23 02:06:25;;;;;;;19.73;14.13;;;;;;;13.70;86.01;150729.75;5052761;28;20071;-69
2023/05/23 02:08:51;;;;;;;28.25;14.77;;;;;;;13.48;86.52;150675.72;5027611;28;20049;-70
2023/05/23 02:11:17;;;;;;;19.15;15.63;;;;;;;13.70;86.38;150731.03;5035704;28;20025;-70
2023/05/23 02:13:42;;;;;;;17.23;13.98;;;;;;;13.72;86.51;150734.88;5035638;28;20030;-69
2023/05/23 02:16:08;;;;;;;21.02;14.05;;;;;;;13.75;86.12;150742.56;5012453;28;20377;-69
2023/05/23 02:18:36;;;;;;;17.92;12.57;;;;;;;13.79;85.91;150754.13;5058986;28;20036;-70
2023/05/23 02:21:04;;;;;;;14.00;12.60;;;;;;;13.79;86.52;150754.13;5064894;28;20165;-69
2023/05/23 02:23:30;;;;;;;20.27;13.80;;;;;;;13.84;86.47;150765.75;5048620;28;20026;-69
2023/05/23 02:25:56;;;;;;;17.02;13.32;;;;;;;13.87;86.40;150773.44;5033542;28;20026;-69
2023/05/23 02:28:21;;;;;;;16.75;12.95;;;;;;;13.85;86.17;150768.28;5024888;28;20025;-69
2023/05/23 02:30:47;;;;;;;21.20;12.73;;;;;;;13.91;85.44;150782.41;5041308;28;20410;-69
2023/05/23 02:33:13;;;;;;;19.25;12.80;;;;;;;13.90;84.54;150779.88;5025269;28;20322;-70
2023/05/23 02:35:38;;;;;;;17.98;12.68;;;;;;;13.92;86.13;150786.31;5041687;28;20317;-70
2023/05/23 02:38:04;;;;;;;15.95;12.38;;;;;;;13.97;85.93;150797.88;5034098;28;20076;-69
2023/05/23 02:40:30;;;;;;;20.05;13.10;;;;;;;13.98;85.83;150801.72;5040886;28;20030;-69
2023/05/23 02:42:56;;;;;;;15.45;13.48;;;;;;;14.01;86.13;150806.84;5041709;28;20046;-69
2023/05/23 02:45:22;;;;;;;16.60;12.77;;;;;;;14.04;86.11;150814.56;5024570;28;20040;-70
2023/05/23 02:47:48;;;;;;;13.93;11.35;;;;;;;14.04;81.10;150815.88;5042827;28;20385;-69
2023/05/23 02:50:14;;;;;;;13.02;9.40;;;;;;;14.03;76.52;150812.03;5030844;28;20048;-69
2023/05/23 02:52:41;;;;;;;12.70;9.02;;;;;;;13.97;75.88;150797.88;5029459;28;20041;-69
2023/05/23 02:55:07;;;;;;;14.98;9.02;;;;;;;14.12;74.68;150836.47;5027473;28;20025;-69
2023/05/23 02:57:33;;;;;;;16.30;8.50;;;;;;;14.15;74.11;150844.16;5044036;28;20093;-69
2023/05/23 02:59:59;;;;;;;14.88;8.80;;;;;;;14.22;74.53;150859.59;5024406;28;20045;-70
2023/05/23 03:02:24;;;;;;;12.52;8.48;;;;;;;14.18;74.06;150849.28;5038868;28;20029;-69
2023/05/23 03:04:50;;;;;;;10.05;8.40;;;;;;;14.24;73.82;150864.75;5033957;28;20029;-70
2023/05/23 03:07:15;;;;;;;11.60;8.75;;;;;;;14.31;73.64;150884.03;5030143;28;20226;-70
2023/05/23 03:09:41;;;;;;;14.07;8.52;;;;;;;14.34;72.91;150890.47;5043159;28;20036;-71
2023/05/23 03:12:07;;;;;;;14.07;8.70;;;;;;;14.48;73.91;150925.19;5024104;28;20345;-70
2023/05/23 03:14:32;;;;;;;15.05;9.02;;;;;;;14.54;73.43;150939.34;5039920;28;20021;-70
2023/05/23 03:16:58;;;;;;;16.85;8.85;;;;;;;14.57;73.44;150948.34;5032760;28;20029;-72
2023/05/23 03:19:23;;;;;;;14.77;9.40;;;;;;;14.48;72.96;150925.19;5043502;28;20059;-70
2023/05/23 03:21:51;;;;;;;14.07;9.10;;;;;;;14.44;72.61;150914.91;5062071;28;20033;-71
2023/05/23 03:24:16;;;;;;;12.90;9.40;;;;;;;14.49;72.33;150929.06;5043796;28;20025;-70
2023/05/23 03:26:42;;;;;;;16.23;9.18;;;;;;;14.58;73.22;150950.91;5036012;28;20282;-70
2023/05/23 03:29:09;;;;;;;14.93;8.73;;;;;;;14.70;72.91;150979.28;5036111;28;20021;-70
2023/05/23 03:31:35;;;;;;;12.48;9.98;;;;;;;14.66;73.20;150970.25;5035580;28;20149;-70
2023/05/23 03:34:02;;;;;;;13.05;9.32;;;;;;;14.70;71.81;150979.28;5023664;28;20034;-69
2023/05/23 03:36:27;;;;;;;12.30;9.20;;;;;;;14.78;72.49;150999.84;5023820;28;20081;-70
2023/05/23 03:38:53;;;;;;;15.95;10.30;;;;;;;14.67;72.65;150974.09;5024550;28;20037;-69
2023/05/23 03:41:18;;;;;;;16.38;9.65;;;;;;;14.81;71.97;151008.84;5039453;28;20146;-71
2023/05/23 03:43:44;;;;;;;20.25;10.77;;;;;;;14.88;71.30;151025.59;5034358;28;20360;-70
2023/05/23 03:46:10;;;;;;;14.90;9.35;;;;;;;14.96;71.36;151046.19;5027872;28;20044;-71
2023/05/23 03:48:35;;;;;;;15.20;10.02;;;;;;;15.13;71.84;151087.31;5042505;28;20056;-70
2023/05/23 03:51:01;;;;;;;13.18;9.90;;;;;;;15.04;71.58;151064.19;5023867;28;20037;-71
2023/05/23 03:53:27;;;;;;;18.83;10.43;;;;;;;15.00;71.37;151056.44;5038032;28;20084;-71
2023/05/23 03:55:53;;;;;;;14.55;10.07;;;;;;;15.08;71.40;151074.44;5033029;28;20097;-72
2023/05/23 03:58:19;;;;;;;16.67;10.90;;;;;;;15.07;70.98;151071.91;5023721;28;20388;-74
2023/05/23 04:00:45;;;;;;;16.15;10.32;;;;;;;15.13;71.14;151087.31;5024022;28;20298;-72
2023/05/23 04:03:13;;;;;;;16.15;10.68;;;;;;;15.08;71.00;151074.44;5028607;28;20022;-71
2023/05/23 04:05:39;;;;;;;13.15;8.95;;;;;;;15.17;70.96;151098.91;5039359;28;20037;-70
2023/05/23 04:08:05;;;;;;;21.35;10.77;;;;;;;15.24;71.73;151114.38;5031392;28;20034;-70
2023/05/23 04:10:31;;;;;;;17.55;9.73;;;;;;;15.15;71.11;151093.75;5030175;28;20029;-68
2023/05/23 04:12:57;;;;;;;14.18;10.50;;;;;;;15.25;70.44;151116.91;5040955;28;20344;-70
2023/05/23 04:15:23;;;;;;;13.57;8.75;;;;;;;15.38;70.99;151149.09;5023297;28;20026;-69
2023/05/23 04:17:50;;;;;;;15.38;11.73;;;;;;;15.36;71.48;151146.53;5028881;28;20184;-71
2023/05/23 04:20:16;;;;;;;19.50;11.25;;;;;;;15.44;71.56;151165.81;5042555;28;20036;-71
2023/05/23 04:22:42;;;;;;;17.00;10.77;;;;;;;15.38;71.14;151150.41;5034448;28;20037;-71
2023/05/23 04:25:08;;;;;;;17.45;10.00;;;;;;;15.28;70.05;151125.94;5026754;28;20033;-70
2023/05/23 04:27:34;;;;;;;16.42;10.88;;;;;;;15.40;70.05;151154.25;5025248;28;20033;-70
2023/05/23 04:30:00;;;;;;;15.10;10.27;;;;;;;15.49;70.25;151178.72;5036020;28;20068;-70
2023/05/23 04:32:26;;;;;;;18.77;10.90;;;;;;;15.51;69.71;151183.84;5026951;28;20033;-69
2023/05/23 04:34:51;;;;;;;18.10;10.48;;;;;;;15.60;69.82;151205.72;5022909;28;20037;-71
2023/05/23 04:37:20;;;;;;;17.80;10.55;;;;;;;15.65;70.45;151218.59;5027832;28;20089;-72
2023/05/23 04:39:47;;;;;;;15.10;10.23;;;;;;;15.68;69.62;151225.06;5038111;28;20069;-71
2023/05/23 04:42:13;;;;;;;18.33;11.02;;;;;;;15.83;69.66;151263.72;5026497;28;20034;-71
2023/05/23 04:44:38;;;;;;;18.95;10.60;;;;;;;15.76;70.03;151244.34;5022793;28;20144;-69
2023/05/23 04:47:04;;;;;;;18.90;10.88;;;;;;;15.71;68.97;151234.03;5024301;28;20295;-69
2023/05/23 04:49:32;;;;;;;13.50;10.13;;;;;;;15.76;68.59;151244.34;5029242;28;20033;-69
2023/05/23 04:51:58;;;;;;;14.95;10.77;;;;;;;15.76;68.82;151245.66;5039723;28;20214;-70
2023/05/23 04:54:24;;;;;;;15.18;10.55;;;;;;;15.75;69.13;151243.06;5005304;28;20130;-70
2023/05/23 04:56:50;;;;;;;17.23;11.02;;;;;;;15.77;70.06;151248.22;5005157;28;20341;-70
2023/05/23 04:59:15;;;;;;;16.67;10.45;;;;;;;15.76;69.78;151244.34;5035644;28;20025;-73
2023/05/23 05:01:41;;;;;;;13.43;10.70;;;;;;;15.78;69.96;151250.78;5037466;28;20346;-71
2023/05/23 05:04:06;;;;;;;18.13;10.57;;;;;;;15.76;70.01;151244.34;5026200;28;20026;-74
2023/05/23 05:06:32;;;;;;;17.35;10.77;;;;;;;15.71;69.63;151232.78;5026309;28;20034;-72
2023/05/23 05:08:58;;;;;;;22.23;11.50;;;;;;;15.67;70.72;151223.75;5044585;28;20044;-73
2023/05/23 05:11:25;;;;;;;18.42;10.73;;;;;;;15.73;70.28;151236.63;5032588;28;20032;-74
2023/05/23 05:13:51;;;;;;;18.10;11.30;;;;;;;15.56;71.42;151195.41;5040458;28;20302;-70
2023/05/23 05:16:17;;;;;;;15.88;11.85;;;;;;;15.56;71.28;151195.41;5047217;28;20018;-73
2023/05/23 05:18:42;;;;;;;19.88;11.98;;;;;;;15.46;72.00;151169.69;5039532;28;20033;-73
2023/05/23 05:21:08;;;;;;;18.70;11.85;;;;;;;15.64;72.36;151216.03;5046294;28;20013;-73
2023/05/23 05:23:35;;;;;;;17.30;12.38;;;;;;;15.75;71.81;151243.06;5033976;28;20025;-73
2023/05/23 05:26:00;;;;;;;14.15;11.18;;;;;;;15.89;71.81;151277.91;5035814;28;20345;-71
2023/05/23 05:28:26;;;;;;;16.40;11.25;;;;;;;16.00;71.53;151306.22;5010631;28;20101;-72
2023/05/23 05:30:54;;;;;;;17.67;11.98;;;;;;;15.93;71.39;151288.16;5026995;28;20033;-72
2023/05/23 05:33:23;;;;;;;14.25;10.95;;;;;;;15.96;71.43;151295.91;5046037;28;20309;-72
2023/05/23 05:35:52;;;;;;;19.38;10.88;;;;;;;16.03;70.97;151313.94;5011134;28;20191;-71
2023/05/23 05:38:18;;;;;;;14.48;8.85;;;;;;;15.83;70.59;151262.41;5038560;28;20088;-72
2023/05/23 05:40:44;;;;;;;16.98;10.10;;;;;;;16.01;71.01;151307.50;5040363;28;20222;-72
2023/05/23 05:43:09;;;;;;;17.70;10.40;;;;;;;16.05;71.05;151319.06;5045838;28;20221;-72
2023/05/23 05:45:35;;;;;;;16.77;9.73;;;;;;;16.22;70.42;151361.56;5028116;28;20325;-75
2023/05/23 05:48:01;;;;;;;18.00;9.43;;;;;;;16.03;71.04;151313.94;5045160;28;20117;-72
2023/05/23 05:50:27;;;;;;;14.57;8.77;;;;;;;16.26;70.97;151369.28;5030357;28;20018;-72
2023/05/23 05:52:53;;;;;;;13.40;9.15;;;;;;;16.35;71.47;151393.78;5033673;28;20052;-73
2023/05/23 05:55:18;;;;;;;13.68;9.18;;;;;;;16.38;70.08;151401.50;5041332;28;20022;-73
2023/05/23 05:57:45;;;;;;;15.02;8.18;;;;;;;16.58;70.21;151450.44;4991849;28;20032;-72
2023/05/23 06:00:17;;;;;;;14.05;9.25;;;;;;;16.48;70.50;151424.69;5023999;28;20030;-73
2023/05/23 06:02:46;;;;;;;13.75;8.65;;;;;;;16.56;70.72;151445.31;5025221;28;20042;-69
2023/05/23 06:05:11;;;;;;;13.13;9.00;;;;;;;16.59;70.45;151451.72;5015700;28;20037;-69
2023/05/23 06:07:38;;;;;;;11.20;7.78;;;;;;;16.68;69.91;151476.19;5025071;28;20038;-69
2023/05/23 06:10:04;;;;;;;12.02;7.55;;;;;;;16.54;69.73;151440.13;5025012;28;20040;-70
2023/05/23 06:12:30;;;;;;;15.60;7.65;;;;;;;16.53;70.73;151438.88;5024169;28;20048;-70
2023/05/23 06:14:55;;;;;;;10.15;7.20;;;;;;;16.62;70.28;151460.75;5042714;28;20033;-70
2023/05/23 06:17:21;;;;;;;13.13;7.78;;;;;;;16.76;70.31;151495.56;5016880;28;20018;-71
2023/05/23 06:19:46;;;;;;;10.88;6.60;;;;;;;16.79;70.07;151501.97;5027478;28;20035;-70
2023/05/23 06:22:12;;;;;;;11.43;6.72;;;;;;;16.73;69.56;151489.09;5023982;28;20064;-69
2023/05/23 06:24:38;;;;;;;11.13;7.13;;;;;;;16.74;70.48;151490.38;5007498;28;20101;-71
2023/05/23 06:27:04;;;;;;;12.18;6.78;;;;;;;16.86;70.20;151521.31;5043264;28;20033;-71
2023/05/23 06:29:30;;;;;;;8.85;5.72;;;;;;;16.80;70.11;151505.88;5038700;28;20344;-73
2023/05/23 06:31:56;;;;;;;9.52;6.30;;;;;;;16.79;70.08;151501.97;5035418;28;20080;-70
2023/05/23 06:34:22;;;;;;;10.50;5.95;;;;;;;16.81;70.17;151507.13;5023437;28;20323;-72
2023/05/23 06:36:48;;;;;;;12.07;6.70;;;;;;;16.92;70.20;151535.53;5024388;28;20030;-69
2023/05/23 06:39:14;;;;;;;14.95;6.65;;;;;;;16.90;70.29;151530.34;5043243;28;20399;-70
2023/05/23 06:41:40;;;;;;;11.18;6.60;;;;;;;17.11;69.88;151583.19;5024044;28;20232;-70
2023/05/23 06:44:05;;;;;;;10.73;6.78;;;;;;;17.04;69.21;151566.44;5034391;28;20084;-71
2023/05/23 06:46:31;;;;;;;13.52;6.22;;;;;;;17.12;69.13;151585.78;5036429;28;20048;-70
2023/05/23 06:48:57;;;;;;;10.70;6.68;;;;;;;17.31;69.71;151633.44;5043181;28;20257;-70
2023/05/23 06:51:22;;;;;;;10.02;6.20;;;;;;;17.42;69.03;151661.81;5032029;28;20029;-70
2023/05/23 06:53:48;;;;;;;10.73;6.15;;;;;;;17.47;68.83;151673.41;5026163;28;20029;-70
2023/05/23 06:56:14;;;;;;;16.30;6.38;;;;;;;17.59;67.88;151703.06;5030781;28;20075;-70
2023/05/23 06:58:40;;;;;;;9.00;5.88;;;;;;;17.71;67.59;151732.72;5024658;28;20210;-70
2023/05/23 07:01:05;;;;;;;9.85;5.78;;;;;;;17.85;67.81;151768.81;5026499;28;20102;-68
2023/05/23 07:03:32;;;;;;;10.45;6.00;;;;;;;17.95;67.01;151793.34;5040256;28;20430;-68
2023/05/23 07:05:58;;;;;;;11.75;5.57;;;;;;;17.97;66.66;151798.53;5033845;28;20037;-66
2023/05/23 07:08:24;;;;;;;7.45;5.40;;;;;;;18.06;66.46;151821.72;5051135;28;20025;-69
2023/05/23 07:10:49;;;;;;;11.75;5.85;;;;;;;18.08;66.11;151826.88;5052665;28;20503;-70
2023/05/23 07:13:15;;;;;;;9.00;5.88;;;;;;;18.09;67.13;151828.19;5053139;28;20032;-72
2023/05/23 07:15:41;;;;;;;13.27;5.90;;;;;;;18.25;67.18;151868.16;5058138;28;20032;-70
2023/05/23 07:18:06;;;;;;;7.65;5.28;;;;;;;18.30;66.81;151881.06;5045326;28;20037;-66
2023/05/23 07:20:32;;;;;;;12.57;6.00;;;;;;;18.30;66.43;151881.06;5043911;28;20026;-69
2023/05/23 07:22:59;;;;;;;10.82;5.75;;;;;;;18.02;67.14;151811.41;5034844;28;20076;-71
2023/05/23 07:25:25;;;;;;;10.48;5.85;;;;;;;18.20;67.35;151855.25;5031663;28;20298;-70
2023/05/23 07:27:53;;;;;;;11.02;6.40;;;;;;;18.25;67.24;151868.16;5047339;28;20025;-69
2023/05/23 07:30:21;;;;;;;8.52;5.80;;;;;;;18.25;67.51;151868.16;5030934;28;20037;-70
2023/05/23 07:32:47;;;;;;;10.20;6.43;;;;;;;18.04;66.85;151816.59;5032078;28;20029;-68
2023/05/23 07:35:16;;;;;;;8.30;6.60;;;;;;;18.23;68.22;151863.00;5037731;28;20029;-71
2023/05/23 07:37:42;;;;;;;11.48;6.32;;;;;;;18.46;68.09;151921.03;5038341;28;20226;-69
2023/05/23 07:40:08;;;;;;;8.93;6.53;;;;;;;18.50;67.75;151931.38;5040249;28;20021;-69
2023/05/23 07:42:34;;;;;;;14.32;6.10;;;;;;;18.39;68.13;151904.25;5046451;28;20021;-70
2023/05/23 07:44:59;;;;;;;10.20;6.18;;;;;;;18.79;67.81;152003.59;5039124;28;20056;-70
2023/05/23 07:47:26;;;;;;;17.63;6.93;;;;;;;18.53;67.27;151937.81;5038035;28;20101;-70
2023/05/23 07:49:52;;;;;;;9.05;5.78;;;;;;;18.66;67.75;151970.06;5042067;28;20033;-68
2023/05/23 07:52:18;;;;;;;9.05;5.43;;;;;;;18.90;67.63;152030.75;5043185;28;20025;-70
2023/05/23 07:54:43;;;;;;;12.93;6.32;;;;;;;18.79;67.62;152004.88;5043239;28;20091;-71
2023/05/23 07:57:09;;;;;;;10.73;6.40;;;;;;;18.89;67.93;152029.44;5025022;28;20370;-70
2023/05/23 07:59:35;;;;;;;9.38;5.72;;;;;;;19.01;67.25;152057.81;5036853;28;20039;-70
2023/05/23 08:02:01;;;;;;;8.52;5.85;;;;;;;19.05;68.06;152068.16;5034384;28;20030;-70
2023/05/23 08:04:28;;;;;;;13.25;6.28;;;;;;;19.12;67.95;152087.47;5026952;28;20117;-71
2023/05/23 08:06:54;;;;;;;10.23;5.50;;;;;;;19.23;67.82;152113.34;5041900;28;20265;-71
2023/05/23 08:09:20;;;;;;;11.45;5.63;;;;;;;19.18;67.87;152101.69;5023214;28;20072;-69
2023/05/23 08:11:46;;;;;;;10.93;5.40;;;;;;;19.25;67.05;152118.47;5038273;28;20039;-70
2023/05/23 08:14:11;;;;;;;10.30;5.32;;;;;;;19.08;67.18;152077.22;5043730;28;20037;-67
2023/05/23 08:16:37;;;;;;;9.07;5.13;;;;;;;19.30;67.84;152131.41;5056395;28;20160;-70
2023/05/23 08:19:03;;;;;;;9.00;5.53;;;;;;;19.39;67.66;152154.59;5043057;28;20028;-69
2023/05/23 08:21:28;;;;;;;8.18;5.18;;;;;;;18.82;69.16;152010.06;5043011;28;20025;-69
2023/05/23 08:23:54;;;;;;;17.30;5.07;;;;;;;18.96;69.38;152046.22;5026870;28;20085;-69
2023/05/23 08:26:20;;;;;;;8.45;5.63;;;;;;;19.04;69.57;152066.88;5034284;28;20025;-72
2023/05/23 08:28:46;;;;;;;6.82;5.20;;;;;;;18.82;69.21;152011.31;5036219;28;20033;-68
2023/05/23 08:31:11;;;;;;;5.85;4.45;;;;;;;18.65;69.21;151968.75;5009009;28;20064;-71
2023/05/23 08:33:37;;;;;;;6.30;5.30;;;;;;;18.55;69.47;151944.22;5046683;28;20025;-69
2023/05/23 08:36:03;;;;;;;10.00;4.78;;;;;;;18.49;70.00;151928.78;5027887;28;20136;-69
2023/05/23 08:38:28;;;;;;;9.10;5.50;;;;;;;18.67;71.10;151973.94;5032107;28;20214;-69
2023/05/23 08:40:55;;;;;;;11.20;5.13;;;;;;;18.42;70.67;151910.72;5036234;28;20076;-70
2023/05/23 08:43:21;;;;;;;8.55;4.25;;;;;;;18.62;70.20;151962.28;5028321;28;20022;-70
2023/05/23 08:45:49;;;;;;;8.00;4.70;;;;;;;18.54;71.10;151940.38;5029367;28;20541;-70
2023/05/23 08:48:19;;;;;;;12.25;5.28;;;;;;;18.64;71.07;151966.19;5048138;28;20028;-69
2023/05/23 08:50:47;;;;;;;9.43;4.80;;;;;;;18.42;71.19;151912.00;5034594;28;20093;-69
2023/05/23 08:53:19;;;;;;;7.15;4.63;;;;;;;18.25;72.54;151869.41;5039798;28;20032;-70
2023/05/23 08:55:53;;;;;;;9.05;5.25;;;;;;;18.26;71.76;151872.00;5042788;28;20064;-70
2023/05/23 08:58:19;;;;;;;8.20;4.45;;;;;;;18.15;72.77;151842.38;5032277;28;20034;-68
2023/05/23 09:00:46;;;;;;;7.70;4.20;;;;;;;17.99;74.31;151803.69;5049090;28;20033;-69
2023/05/23 09:03:13;;;;;;;6.85;4.25;;;;;;;18.15;74.39;151842.38;5030616;28;20018;-69
2023/05/23 09:05:38;;;;;;;7.97;4.88;;;;;;;17.92;75.38;151786.91;5042398;28;20092;-70
2023/05/23 09:08:04;;;;;;;5.97;4.60;;;;;;;17.99;76.53;151802.41;5022583;28;20047;-70
2023/05/23 09:10:30;;;;;;;8.25;4.90;;;;;;;18.07;76.64;151824.31;5033085;28;20027;-69
2023/05/23 09:12:57;;;;;;;7.28;4.97;;;;;;;17.84;77.72;151764.94;5048758;28;20322;-70
2023/05/23 09:15:23;;;;;;;7.57;5.15;;;;;;;17.84;77.91;151766.25;5029250;28;20026;-70
2023/05/23 09:17:49;;;;;;;8.32;5.47;;;;;;;17.74;78.28;151741.75;5049524;28;20025;-70
2023/05/23 09:20:16;;;;;;;6.43;4.97;;;;;;;17.43;80.21;151664.41;5068859;28;20048;-70
2023/05/23 09:22:48;;;;;;;6.95;5.53;;;;;;;17.46;80.29;151669.53;5062967;28;20033;-71
2023/05/23 09:25:14;;;;;;;7.90;5.22;;;;;;;17.65;79.71;151717.25;5047004;28;20030;-70
2023/05/23 09:27:40;;;;;;;9.48;6.05;;;;;;;17.43;80.60;151664.41;5065633;28;20086;-70
2023/05/23 09:30:08;;;;;;;8.05;5.40;;;;;;;17.60;80.41;151705.66;5051633;28;20025;-70
2023/05/23 09:32:33;;;;;;;9.65;6.72;;;;;;;17.57;81.58;151699.22;5035832;28;20097;-70
2023/05/23 09:35:10;;;;;;;7.25;5.50;;;;;;;17.68;80.10;151726.25;5036533;28;20080;-69
2023/05/23 09:37:39;;;;;;;8.05;5.97;;;;;;;17.54;80.15;151690.16;5043980;28;20025;-70
2023/05/23 09:40:12;;;;;;;7.63;6.00;;;;;;;17.80;80.10;151754.63;5035983;28;20068;-70
2023/05/23 09:42:43;;;;;;;10.80;6.30;;;;;;;17.84;80.35;151764.94;5028718;28;20034;-71
2023/05/23 09:45:09;;;;;;;9.02;5.97;;;;;;;17.90;79.70;151780.41;5028991;28;20049;-71
2023/05/23 09:47:35;;;;;;;7.88;5.55;;;;;;;17.81;79.36;151758.47;5039132;28;20025;-70
2023/05/23 09:50:00;;;;;;;8.95;5.45;;;;;;;17.77;80.09;151748.16;5035954;28;20097;-69
2023/05/23 09:52:26;;;;;;;9.57;5.93;;;;;;;17.63;79.36;151713.38;5025503;28;20125;-70
2023/05/23 09:54:53;;;;;;;8.63;6.07;;;;;;;17.72;80.06;151736.56;5025060;28;20211;-69
2023/05/23 09:57:22;;;;;;;9.40;6.13;;;;;;;17.54;80.82;151690.16;5044059;28;20033;-70
2023/05/23 09:59:55;;;;;;;11.75;6.22;;;;;;;17.58;81.50;151700.47;5031040;28;20102;-71
2023/05/23 10:02:53;;;;;;;9.15;6.60;;;;;;;17.79;81.35;151752.06;5035698;28;20029;-69
2023/05/23 10:05:32;;;;;;;11.50;6.40;;;;;;;17.79;80.79;151752.06;5009206;28;20048;-68
2023/05/23 10:08:01;;;;;;;10.13;6.32;;;;;;;17.88;81.12;151775.25;5018225;28;20030;-68
2023/05/23 10:10:30;;;;;;;8.85;7.07;;;;;;;17.98;81.08;151799.81;5008737;28;20030;-68
2023/05/23 10:12:59;;;;;;;8.70;6.22;;;;;;;17.50;83.28;151679.84;5025499;28;20057;-68
2023/05/23 10:15:29;;;;;;;7.72;5.95;;;;;;;17.54;83.36;151690.16;4989075;28;20080;-68
2023/05/23 10:18:15;;;;;;;6.57;5.50;;;;;;;17.43;82.42;151664.41;5026214;28;20025;-68
2023/05/23 10:20:46;;;;;;;7.05;5.20;;;;;;;17.24;82.88;151616.72;5017217;28;20107;-70
2023/05/23 10:23:12;;;;;;;7.35;5.25;;;;;;;17.43;82.85;151664.41;5007720;28;20026;-70
2023/05/23 10:25:40;;;;;;;9.27;6.13;;;;;;;17.26;83.42;151620.59;5020564;28;20057;-69
2023/05/23 10:28:05;;;;;;;7.57;5.60;;;;;;;17.60;83.02;151705.66;5005140;28;20129;-69
2023/05/23 10:30:33;;;;;;;10.90;6.20;;;;;;;17.60;83.38;151706.94;5007054;28;20030;-69
2023/05/23 10:33:00;;;;;;;8.88;5.25;;;;;;;17.61;82.90;151708.22;5024061;28;20169;-69
2023/05/23 10:35:37;;;;;;;8.93;6.10;;;;;;;17.61;83.07;151708.22;5014015;28;20030;-70
2023/05/23 10:38:14;;;;;;;7.97;6.00;;;;;;;17.66;83.74;151721.13;5005040;28;20036;-69
2023/05/23 10:41:02;;;;;;;11.13;5.97;;;;;;;17.42;83.09;151660.53;5024811;28;20097;-69
2023/05/23 10:43:40;;;;;;;7.90;5.95;;;;;;;17.53;84.61;151688.91;5024463;28;20022;-69
2023/05/23 10:46:08;;;;;;;9.73;5.90;;;;;;;17.45;83.91;151667.00;5024669;28;20045;-72
2023/05/23 10:48:39;;;;;;;7.75;6.10;;;;;;;17.33;84.12;151638.63;5004908;28;20097;-71
2023/05/23 10:51:07;;;;;;;9.57;5.50;;;;;;;17.28;83.86;151624.44;5011386;28;20027;-72
2023/05/23 10:53:52;;;;;;;7.93;5.88;;;;;;;17.47;84.76;151673.41;5033406;28;20245;-69
2023/05/23 10:56:22;;;;;;;7.07;5.88;;;;;;;17.52;85.11;151686.31;5043521;28;20237;-70
2023/05/23 10:58:56;;;;;;;9.18;6.60;;;;;;;17.28;85.88;151624.44;5020483;28;20077;-71
2023/05/23 11:01:22;;;;;;;12.25;6.78;;;;;;;17.18;86.42;151599.97;5022690;28;20044;-69
2023/05/23 11:03:50;;;;;;;10.75;7.53;;;;;;;17.27;86.86;151623.13;5004782;28;20033;-69
2023/05/23 11:06:41;;;;;;;7.30;6.40;;;;;;;17.18;87.04;151601.22;5025355;28;20087;-69
2023/05/23 11:09:19;;;;;;;9.80;7.25;;;;;;;17.24;87.52;151615.41;5027945;28;20041;-69
2023/05/23 11:11:53;;;;;;;9.05;8.10;;;;;;;17.16;88.07;151594.78;5037614;28;20100;-69
2023/05/23 11:14:51;;;;;;;9.50;7.30;;;;;;;17.10;88.19;151580.59;5019233;28;20307;-70
2023/05/23 11:17:28;;;;;;;11.98;8.30;;;;;;;16.98;89.28;151550.97;5033622;28;20033;-70
2023/05/23 11:20:08;;;;;;;8.55;7.43;;;;;;;17.02;88.56;151561.28;5037664;28;20022;-70